• Join FlightAware (Why Join?)
  • Login
  • US Flag 
 
09:31PM EST


 

Airport Tracker/Info


-or-


 

Live Flight TrackerFlight Track Log ✈ ACA831 ✈ 20-Jun-2013 ✈ LSGG / GVA - CYUL

Flight Track Log - Related Links

Times and Time Zones

All times are in EDT time to prevent confusion due to time zone crossing. See the ACA831 flight status page for this flight to view local times or setup timezone preferences in your user account.

Time Position Orientation Groundspeed Altitude Reporting Facility
EDT Latitude Longitude Course Direction KTS MPH feet Rate Location/Type
06:12AM 46.2230 6.1030 34° Northeast 5 6  Level FlightAware
06:14AM 46.2230 6.1040 90° East 6 7 180 Level FlightAware
06:15AM 46.2240 6.1050 35° Northeast 5 6 240 Level FlightAware
06:16AM 46.2250 6.1080 64° Northeast 17 20 240 Level FlightAware
06:16AM 46.2270 6.1100 35° Northeast 21 24 240 Level FlightAware
06:17AM 46.2290 6.1140 54° Northeast 26 30 240 Level FlightAware
06:17AM 46.2310 6.1170 46° Northeast 25 29 300 Level FlightAware
06:18AM 46.2330 6.1200 46° Northeast 22 25 300 Level FlightAware
06:18AM 46.2340 6.1230 64° Northeast 15 17 300 Level FlightAware
06:19AM 46.2360 6.1250 35° Northeast 12 14 300 Level FlightAware
06:19AM 46.2360 6.1260 90° East 13 15 360 Level FlightAware
06:19AM 46.2380 6.1280 35° Northeast 17 20 360 Level FlightAware
06:20AM 46.2390 6.1290 35° Northeast 9 10 360 Level FlightAware
06:21AM 46.2390 6.1300 90° East 420 Level FlightAware
06:21AM 46.2390 6.1290 270° West 2 2 480 Level FlightAware
06:22AM 46.2380 6.1290 180° South 2 2 600 Level FlightAware
06:24AM 46.2380 6.1280 270° West 10 12 660 Level FlightAware
06:25AM 46.2380 6.1270 270° West 4 5 1,500 Level FlightAware
06:26AM 46.2320 6.1200 219° Southwest 125 144 1,920 Level FlightAware
06:26AM 46.2050 6.0810 225° Southwest 174 200 2,900 5,160 Climbing FlightAware
06:27AM 46.1870 6.0540 226° Southwest 188 216 4,000 2,280 Climbing FlightAware
06:27AM 46.1750 6.0360 226° Southwest 191 220 4,800 2,220 Climbing FlightAware
06:27AM 46.1660 6.0220 227° Southwest 193 222 5,300 2,160 Climbing FlightAware
06:28AM 46.1470 5.9930 227° Southwest 192 221 6,500 2,220 Climbing FlightAware
06:28AM 46.1300 5.9670 227° Southwest 206 237 7,400 1,680 Climbing FlightAware
06:29AM 46.1250 5.9380 256° West 245 282 7,800 960 Climbing FlightAware
06:29AM 46.1290 5.9190 287° West 266 306 7,900 1,200 Climbing FlightAware
06:29AM 46.1400 5.8990 308° West 275 316 8,300 2,040 Climbing FlightAware
06:29AM 46.1580 5.8850 332° Northwest 286 329 8,900 1,980 Climbing FlightAware
06:30AM 46.1760 5.8730 335° Northwest 303 349 9,300 2,160 Climbing FlightAware
06:30AM 46.2220 5.8340 330° Northwest 335 386 10,700 2,100 Climbing FlightAware
06:32AM 46.3470 5.6910 322° Northwest 414 476 13,700 1,620 Climbing FlightAware
06:33AM 46.4380 5.6120 329° Northwest 431 496 14,800 660 Climbing FlightAware
06:33AM 46.4870 5.5690 329° Northwest 431 496 14,800 120 Level FlightAware
06:34AM 46.5840 5.5190 340° North 430 495 15,000 60 Climbing FlightAware
06:36AM 46.7710 5.4100 338° Northwest 430 495 15,000 2,280 Level FlightAware
06:37AM 46.8890 5.2920 326° Northwest 418 481 21,500 4,380 Climbing FlightAware
06:37AM 46.9610 5.2380 333° Northwest 452 520 22,100 1,140 Climbing FlightAware
06:38AM 47.0720 5.1520 332° Northwest 480 552 23,400 1,560 Climbing FlightAware
06:39AM 47.1540 5.0860 331° Northwest 496 571 24,700 960 Climbing FlightAware
06:40AM 47.2840 4.9780 331° Northwest 493 567 25,300 1,320 Climbing FlightAware
06:41AM 47.3880 4.8980 332° Northwest 533 613 27,300 2,700 Climbing FlightAware
06:42AM 47.4890 4.8100 330° Northwest 530 610 29,100 2,160 Climbing FlightAware
06:42AM 47.5720 4.7310 327° Northwest 529 609 30,300 1,620 Climbing FlightAware
06:43AM 47.6560 4.6330 322° Northwest 530 610 31,400 1,380 Climbing FlightAware
06:44AM 47.7300 4.5340 318° Northwest 529 609 32,300 1,320 Climbing FlightAware
06:44AM 47.7800 4.4680 318° Northwest 528 608 32,900 1,440 Climbing FlightAware
06:45AM 47.8490 4.3740 318° Northwest 502 578 34,000 720 Climbing FlightAware
06:46AM 47.9280 4.2670 318° Northwest 496 571 34,000  Level FlightAware
06:46AM 47.9880 4.1860 318° Northwest 501 577 34,000  Level FlightAware
06:47AM 48.0470 4.1060 318° Northwest 507 583 34,000  Level FlightAware
06:48AM 48.1430 3.9730 317° Northwest 517 595 34,000  Level FlightAware
06:48AM 48.2110 3.8780 317° Northwest 520 598 34,000  Level FlightAware
06:49AM 48.2970 3.7600 318° Northwest 522 601 34,000  Level FlightAware
06:50AM 48.3620 3.6690 317° Northwest 523 602 34,000  Level FlightAware
06:51AM 48.4410 3.5590 317° Northwest 513 590 34,000  Level FlightAware
06:51AM 48.5040 3.4700 317° Northwest 512 589 34,000  Level FlightAware
06:52AM 48.5800 3.3670 318° Northwest 514 592 34,000  Level FlightAware
06:53AM 48.6780 3.2730 328° Northwest 511 588 34,000  Level FlightAware
06:53AM 48.7630 3.2120 335° Northwest 511 588 34,000  Level FlightAware
06:54AM 48.8570 3.1430 334° Northwest 503 579 34,000  Level FlightAware
06:55AM 48.9150 3.1010 335° Northwest 510 587 34,000  Level FlightAware
06:55AM 48.9990 3.0400 335° Northwest 508 585 34,000  Level FlightAware
06:56AM 49.0940 2.9720 335° Northwest 506 582 34,000  Level FlightAware
06:57AM 49.1830 2.9080 335° Northwest 503 579 34,000  Level FlightAware
06:57AM 49.2640 2.8490 335° Northwest 502 578 34,000  Level FlightAware
06:58AM 49.3410 2.7920 334° Northwest 501 577 34,000  Level FlightAware
06:59AM 49.4450 2.7140 334° Northwest 502 578 34,000  Level FlightAware
06:59AM 49.5200 2.6590 335° Northwest 503 579 34,000  Level FlightAware
07:00AM 49.6531 2.5761 335° Northwest 454 522 34,000 -120 Level FlightAware UK
07:01AM 49.7276 2.5200 334° Northwest 452 520 33,900  Descending FlightAware UK
07:01AM 49.6970 2.5220 334° Northwest 503 579 34,000 120 Climbing FlightAware
07:02AM 49.8155 2.4537 334° Northwest 452 520 34,000  Level FlightAware UK
07:02AM 49.8190 2.4340 334° Northwest 503 579 34,000  Level FlightAware
07:02AM 49.9031 2.3870 334° Northwest 450 518 34,000  Level FlightAware UK
07:02AM 49.9130 2.3630 334° Northwest 504 580 34,000  Level FlightAware
07:03AM 49.9820 2.3110 334° Northwest 500 575 34,000  Level FlightAware
07:04AM 50.0800 2.2350 334° Northwest 511 588 34,000  Level FlightAware
07:04AM 50.1690 2.1660 334° Northwest 515 593 34,000  Level FlightAware
07:06AM 50.2940 2.0690 334° Northwest 518 596 34,000  Level FlightAware
07:06AM 50.4140 1.9420 334° Northwest 526 605 34,000  Level FlightAware
07:07AM 50.4401 1.9344 334° Northwest 460 529 34,000  Level FlightAware UK
07:07AM 50.4955 1.8604 334° Northwest 460 529 34,000  Level FlightAware UK
07:07AM 50.4870 1.8440 334° Northwest 521 600 34,000  Level FlightAware
07:08AM 50.5832 1.7402 334° Northwest 458 527 34,000  Level FlightAware UK
07:08AM 50.5780 1.7180 334° Northwest 529 609 34,000  Level FlightAware
07:09AM 50.6590 1.6070 319° Northwest 530 610 34,000  Level FlightAware
07:09AM 50.7290 1.5100 319° Northwest 530 610 34,000  Level FlightAware
07:10AM 50.7960 1.4150 318° Northwest 529 609 34,000  Level FlightAware
07:11AM 50.9122 1.2815 318° Northwest 464 534 34,000  Level FlightAware UK
07:11AM 50.9090 1.2580 318° Northwest 527 606 34,000  Level FlightAware
07:12AM 50.9698 1.1731 319° Northwest 525 604 34,000 120 Level FlightAware ADS-B
07:12AM 51.0294 1.0784 315° West 522 601 34,200 660 Climbing FlightAware ADS-B
07:12AM 51.0548 1.0169 303° West 516 594 34,600 1,320 Climbing FlightAware ADS-B
07:13AM 51.0638 0.9911 299° West 515 593 34,800 960 Climbing FlightAware ADS-B
07:13AM 51.0793 0.9377 295° West 513 590 35,000 900 Climbing FlightAware ADS-B
07:13AM 51.1058 0.8042 288° West 509 586 35,600 840 Climbing FlightAware ADS-B
07:14AM 51.1271 0.6890 286° West 509 586 36,000 360 Climbing FlightAware ADS-B
07:14AM 51.1470 0.5775 286° West 511 588 36,000  Level FlightAware ADS-B
07:15AM 51.1679 0.4590 286° West 512 589 36,000  Level FlightAware ADS-B
07:16AM 51.1927 0.3191 286° West 513 590 36,000  Level FlightAware ADS-B
07:16AM 51.2121 0.2078 286° West 509 586 36,000  Level FlightAware ADS-B
07:17AM 51.2315 0.0971 286° West 507 583 36,000  Level FlightAware ADS-B
07:17AM 51.2505 -0.0108 286° West 505 581 36,000  Level FlightAware ADS-B
07:18AM 51.2703 -0.1228 286° West 503 579 36,000  Level FlightAware ADS-B
07:18AM 51.2895 -0.2306 286° West 500 575 36,000  Level FlightAware ADS-B
07:19AM 51.3096 -0.3444 286° West 498 573 36,000  Level FlightAware ADS-B
07:19AM 51.3289 -0.4527 286° West 496 571 36,000  Level FlightAware ADS-B
07:20AM 51.3474 -0.5603 285° West 494 568 36,000  Level FlightAware ADS-B
07:20AM 51.3645 -0.6659 285° West 494 568 36,000  Level FlightAware ADS-B
07:21AM 51.3825 -0.7771 285° West 494 568 36,000  Level FlightAware ADS-B
07:21AM 51.4013 -0.8949 284° West 493 567 36,000  Level FlightAware ADS-B
07:22AM 51.4186 -1.0034 284° West 493 567 36,000  Level FlightAware ADS-B
07:22AM 51.4378 -1.1237 284° West 492 566 36,000  Level FlightAware ADS-B
07:23AM 51.4557 -1.2372 284° West 492 566 36,000  Level FlightAware ADS-B
07:24AM 51.4733 -1.3493 284° West 492 566 36,000  Level FlightAware ADS-B
07:24AM 51.4909 -1.4607 284° West 492 566 36,000  Level FlightAware ADS-B
07:25AM 51.5077 -1.5687 284° West 492 566 36,000  Level FlightAware ADS-B
07:25AM 51.5252 -1.6811 284° West 492 566 36,000  Level FlightAware ADS-B
07:26AM 51.5424 -1.7921 284° West 493 567 36,000  Level FlightAware ADS-B
07:26AM 51.5598 -1.9055 284° West 493 567 36,000  Level FlightAware ADS-B
07:27AM 51.5774 -2.0174 284° West 493 567 36,000  Level FlightAware ADS-B
07:27AM 51.5949 -2.1324 284° West 493 567 36,000  Level FlightAware ADS-B
07:28AM 51.6113 -2.2417 284° West 492 566 36,000  Level FlightAware ADS-B
07:28AM 51.6292 -2.3631 283° West 492 566 36,000  Level FlightAware ADS-B
07:29AM 51.6451 -2.4738 283° West 490 564 36,000  Level FlightAware ADS-B
07:29AM 51.6615 -2.5885 283° West 488 562 36,000  Level FlightAware ADS-B
07:30AM 51.6774 -2.7011 283° West 485 558 36,000  Level FlightAware ADS-B
07:31AM 51.6977 -2.8438 283° West 482 555 36,000  Level FlightAware ADS-B
07:31AM 51.7150 -2.9620 283° West 473 544 36,000  Level FlightAware
07:32AM 51.7350 -3.1040 283° West 467 537 36,000  Level FlightAware
07:33AM 51.7540 -3.2490 282° West 464 534 36,000  Level FlightAware
07:33AM 51.7730 -3.3920 282° West 462 532 36,000  Level FlightAware
07:34AM 51.7920 -3.5290 283° West 460 529 36,000  Level FlightAware
07:35AM 51.8310 -3.6810 283° West 450 518 36,000  Level FlightAware UK
07:35AM 51.8100 -3.6710 283° West 459 528 36,000  Level FlightAware
07:35AM 51.8444 -3.7817 283° West 450 518 36,000  Level FlightAware UK
07:35AM 51.8290 -3.8170 283° West 457 526 36,000  Level FlightAware
07:36AM 51.8470 -3.9520 282° West 456 525 36,000  Level FlightAware
07:37AM 51.8912 -4.0998 282° West 450 518 36,000  Level FlightAware UK
07:37AM 51.8700 -4.0920 282° West 457 526 36,000  Level FlightAware
07:37AM 51.8980 -4.2090 282° West 457 526 36,000  Level FlightAware
07:37AM 51.9239 -4.2333 282° West 452 520 36,000  Level FlightAware UK
07:38AM 51.9550 -4.3682 282° West 456 525 36,000  Level FlightAware UK
07:38AM 51.9310 -4.3520 282° West 457 526 36,000  Level FlightAware
07:39AM 51.9764 -4.4649 282° West 456 525 36,000  Level FlightAware UK
07:39AM 51.9590 -4.4780 282° West 456 525 36,000  Level FlightAware
07:40AM 51.9920 -4.6320 289° West 453 521 36,000  Level FlightAware
07:40AM 52.0200 -4.7570 290° West 452 520 36,000  Level FlightAware
07:41AM 52.0480 -4.8900 289° West 451 519 36,000  Level FlightAware
07:42AM 52.0780 -5.0300 289° West 451 519 36,000  Level FlightAware
07:42AM 52.1080 -5.1640 290° West 450 518 36,000  Level FlightAware
07:43AM 52.1370 -5.2910 290° West 450 518 36,000  Level FlightAware
07:44AM 52.2098 -5.4272 290° West 446 513 36,000  Level FlightAware UK
07:44AM 52.1900 -5.4230 290° West 455 524 36,000  Level FlightAware
07:44AM 52.2390 -5.5350 306° West 455 524 36,000  Level FlightAware
07:45AM 52.3363 -5.7111 306° West 450 518 36,000  Level FlightAware UK
07:46AM 52.2940 -5.6600 306° West 456 525 36,000  Level FlightAware
07:46AM 52.3780 -5.8410 307° West 456 525 36,000  Level FlightAware
07:47AM 52.4270 -5.9470 307° West 460 529 36,000  Level FlightAware
07:47AM 52.4589 -5.9748 307° West 454 522 36,000  Level FlightAware UK
07:48AM 52.5052 -6.0747 307° West 456 525 36,000  Level FlightAware UK
07:48AM 52.4920 -6.0880 307° West 36,000  Level FlightAware
07:49AM 52.5610 -6.2370 307° West 466 536 36,000  Level FlightAware
07:49AM 52.6309 -6.3458 307° West 456 525 36,000  Level FlightAware UK
07:49AM 52.6210 -6.3660 307° West 469 540 36,000  Level FlightAware
07:50AM 52.7093 -6.5172 307° West 464 534 36,000  Level FlightAware UK
07:50AM 52.6800 -6.4970 307° West 470 541 36,000  Level FlightAware
07:51AM 52.7485 -6.6034 307° West 464 534 36,000  Level FlightAware UK
07:51AM 52.7350 -6.6170 307° West 471 542 36,000  Level FlightAware
07:52AM 52.7930 -6.7470 306° West 471 542 36,000  Level FlightAware
07:52AM 52.8735 -6.8799 306° West 460 529 36,000  Level FlightAware UK
07:52AM 52.8440 -6.8590 306° West 469 540 36,000  Level FlightAware
07:53AM 52.9122 -6.9663 306° West 460 529 36,000  Level FlightAware UK
07:53AM 52.9050 -6.9950 306° West 469 540 36,000  Level FlightAware
07:54AM 52.9610 -7.1190 307° West 468 539 36,000  Level FlightAware
07:54AM 53.0281 -7.2257 307° West 456 525 36,000  Level FlightAware UK
07:54AM 53.0110 -7.2320 307° West 467 537 36,000  Level FlightAware
07:55AM 53.0300 -7.2760 306° West 467 537 36,000  Level FlightAware
07:55AM 53.1123 -7.4159 306° West 452 520 36,000  Level FlightAware UK
07:56AM 53.1060 -7.4480 306° West 469 540 36,000  Level FlightAware
07:56AM 53.1889 -7.5902 306° West 450 518 36,000  Level FlightAware UK
07:56AM 53.1620 -7.5760 306° West 470 541 36,000  Level FlightAware
07:57AM 53.2130 -7.6930 306° West 471 542 36,000  Level FlightAware
07:58AM 53.2710 -7.8270 306° West 474 545 36,000  Level FlightAware
07:59AM 53.3503 -7.9609 306° West 448 516 36,000  Level FlightAware UK
07:59AM 53.3220 -7.9450 306° West 474 545 36,000  Level FlightAware
07:59AM 53.3810 -8.0820 306° West 476 548 36,000  Level FlightAware
08:00AM 53.4320 -8.2000 306° West 473 544 36,000  Level FlightAware
08:01AM 53.5044 -8.3196 306° West 466 536 36,000  Level FlightAware UK
08:01AM 53.4830 -8.3210 306° West 477 549 36,000  Level FlightAware
08:01AM 53.5330 -8.4400 305° West 476 548 36,000  Level FlightAware
08:02AM 53.5900 -8.5740 306° West 474 545 36,000  Level FlightAware
08:03AM 53.6645 -8.6974 306° West 464 534 36,000  Level FlightAware UK
08:03AM 53.6420 -8.6960 306° West 471 542 36,000  Level FlightAware
08:03AM 53.6970 -8.8290 305° West 464 534 36,000  Level FlightAware
08:04AM 53.7762 -8.9653 305° West 460 529 36,000  Level FlightAware UK
08:04AM 53.7470 -8.9490 305° West 462 532 36,000  Level FlightAware
08:05AM 53.8150 -9.1140 305° West 460 529 36,000  Level FlightAware
08:06AM 53.8630 -9.2300 305° West 458 527 36,000  Level FlightAware
08:06AM 53.9180 -9.3670 304° West 461 531 36,000  Level FlightAware
08:07AM 53.9650 -9.4820 305° West 461 531 36,000  Level FlightAware
08:08AM 54.0200 -9.6190 304° West 461 531 36,000  Level FlightAware
08:09AM 54.0690 -9.7390 305° West 464 534 36,000  Level FlightAware
08:09AM 54.1220 -9.8720 304° West 466 536 36,000  Level FlightAware
08:10AM 54.1660 -9.9820 304° West 467 537 36,000  Level FlightAware
08:11AM 54.2200 -10.1170 304° West 466 536 36,000  Level FlightAware
08:11AM 54.2730 -10.2540 304° West 467 537 36,000  Level FlightAware
08:12AM 54.3280 -10.3920 304° West 464 534 36,000  Level FlightAware
08:13AM 54.3760 -10.5160 304° West 463 533 36,000  Level FlightAware
08:13AM 54.4230 -10.6360 304° West 462 532 36,000  Level FlightAware
08:14AM 54.4710 -10.7600 304° West 461 531 36,000 420 Level FlightAware
08:15AM 54.5240 -10.8990 303° West 453 521 36,600 660 Climbing FlightAware
08:16AM 54.5750 -11.0330 303° West 452 520 37,000 240 Climbing FlightAware
08:16AM 54.6230 -11.1570 304° West 453 521 37,000  Level FlightAware
08:17AM 54.6490 -11.2250 303° West 453 521 37,000  Level FlightAware
08:18AM 54.7200 -11.4140 303° West 458 527 37,000  Level FlightAware
08:18AM 54.7680 -11.5410 303° West 459 528 37,000  Level FlightAware
08:19AM 54.8150 -11.6680 303° West 459 528 37,000  Level FlightAware
08:20AM 54.8660 -11.8060 303° West 460 529 37,000  Level FlightAware
08:21AM 54.8850 -11.8590 302° West 461 531 37,000  Level FlightAware
08:22AM 54.9860 -12.1330 303° West 461 531 37,000  Level FlightAware
08:22AM 55.0370 -12.2740 302° West 459 528 37,000  Level FlightAware
08:23AM 55.0900 -12.4210 302° West 461 531 37,000  Level FlightAware
08:24AM 55.1410 -12.5620 302° West 458 527 37,000  Level FlightAware
08:24AM 55.1870 -12.6890 302° West 456 525 37,000  Level FlightAware
08:26AM 55.2510 -12.8740 301° West 454 522 37,000  Level FlightAware
08:26AM 55.2990 -13.0070 302° West 446 513 37,000  Level FlightAware
08:27AM 55.3420 -13.1340 301° West 446 513 37,000  Level FlightAware
08:28AM 55.3720 -13.2240 300° West 446 513 37,000  Level FlightAware
08:28AM 55.4150 -13.3560 300° West 446 513 37,000  Level FlightAware
08:29AM 55.4450 -13.4470 300° West 446 513 37,000  Level FlightAware
08:30AM 55.5180 -13.6720 300° West 446 513 37,000  Level FlightAware
08:31AM 55.5540 -13.7820 300° West 446 513 37,000  Level FlightAware
08:32AM 55.5940 -13.9050 300° West 446 513 37,000  Level FlightAware
08:32AM 55.6240 -13.9970 300° West 446 513 37,000  Level FlightAware
08:33AM 55.6660 -14.1260 300° West 446 513 37,000  Level FlightAware
08:34AM 55.6870 -14.1910 300° West 446 513 37,000  Level FlightAware
08:34AM 55.7290 -14.3180 300° West 446 513 37,000  Level FlightAware
08:35AM 55.7630 -14.4230 300° West 446 513 37,000  Level FlightAware
08:36AM 55.7950 -14.5230 300° West 446 513 37,000  Level FlightAware
08:36AM 55.8390 -14.6580 300° West 446 513 37,000  Level FlightAware
08:39AM 55.8786 -15.0814 280° West  Level Estimated
08:40AM 55.8974 -15.2883 279° West  Level Estimated
08:41AM 55.9158 -15.4953 279° West  Level Estimated
08:42AM 55.9339 -15.7026 279° West  Level Estimated
08:43AM 55.9516 -15.9100 279° West  Level Estimated
08:44AM 55.9690 -16.1176 279° West  Level Estimated
08:45AM 55.9861 -16.3254 278° West  Level Estimated
08:46AM 56.0028 -16.5334 278° West  Level Estimated
08:47AM 56.0191 -16.7416 278° West  Level Estimated
08:48AM 56.0772 -16.9226 300° West  Level FlightAware Approximate
08:49AM 56.1350 -17.1041 300° West  Level FlightAware Approximate
08:50AM 56.1943 -17.2917 300° West  Level FlightAware Approximate
08:51AM 56.2533 -17.4798 300° West  Level FlightAware Approximate
08:52AM 56.3121 -17.6685 299° West  Level FlightAware Approximate
08:53AM 56.3705 -17.8578 299° West  Level FlightAware Approximate
08:54AM 56.4287 -18.0477 299° West  Level FlightAware Approximate
08:55AM 56.4865 -18.2381 299° West  Level FlightAware Approximate
08:56AM 56.5441 -18.4291 299° West  Level FlightAware Approximate
08:57AM 56.6013 -18.6208 299° West  Level FlightAware Approximate
08:58AM 56.6583 -18.8129 298° West  Level FlightAware Approximate
08:59AM 56.7150 -19.0057 298° West  Level FlightAware Approximate
09:00AM 56.7714 -19.1991 298° West  Level FlightAware Approximate
09:01AM 56.8275 -19.3930 298° West  Level FlightAware Approximate
09:02AM 56.8833 -19.5875 298° West  Level FlightAware Approximate
09:02AM 57.0000 -20.0000 285° West 427 491 37,000  Level ETMS Enhanced Traffic Management System
09:03AM 56.9387 -19.7826 298° West  Level FlightAware Approximate
09:04AM 56.9939 -19.9783 297° West  Level FlightAware Approximate
09:05AM 57.0023 -20.1982 285° West  Level Estimated
09:06AM 57.0329 -20.4115 285° West  Level FlightAware Approximate
09:07AM 57.0631 -20.6252 285° West  Level FlightAware Approximate
09:08AM 57.2026 -21.4835 283° West 427 491 37,000  Level FlightAware Transoceanic
09:09AM 57.2301 -21.6968 283° West 427 491 37,000  Level FlightAware Transoceanic
09:10AM 57.2573 -21.9103 283° West 427 491 37,000  Level FlightAware Transoceanic
09:11AM 57.2841 -22.1242 283° West 427 491 37,000  Level FlightAware Transoceanic
09:12AM 57.3105 -22.3384 283° West 427 491 37,000  Level FlightAware Transoceanic
09:13AM 57.3366 -22.5529 283° West 427 491 37,000  Level FlightAware Transoceanic
09:14AM 57.3622 -22.7677 282° West 427 491 37,000  Level FlightAware Transoceanic
09:15AM 57.3876 -22.9827 282° West 427 491 37,000  Level FlightAware Transoceanic
09:16AM 57.4125 -23.1981 282° West 427 491 37,000  Level FlightAware Transoceanic
09:17AM 57.4371 -23.4138 282° West 427 491 37,000  Level FlightAware Transoceanic
09:18AM 57.4613 -23.6297 282° West 427 491 37,000  Level FlightAware Transoceanic
09:19AM 57.4852 -23.8460 282° West 427 491 37,000  Level FlightAware Transoceanic
09:20AM 57.5087 -24.0625 281° West 427 491 37,000  Level FlightAware Transoceanic
09:21AM 57.5318 -24.2793 281° West 427 491 37,000  Level FlightAware Transoceanic
09:22AM 57.5545 -24.4964 281° West 427 491 37,000  Level FlightAware Transoceanic
09:23AM 57.5769 -24.7137 281° West 427 491 37,000  Level FlightAware Transoceanic
09:24AM 57.5989 -24.9313 281° West 427 491 37,000  Level FlightAware Transoceanic
09:25AM 57.6205 -25.1492 280° West 427 491 37,000  Level FlightAware Transoceanic
09:26AM 57.6418 -25.3673 280° West 427 491 37,000  Level FlightAware Transoceanic
09:27AM 57.6626 -25.5857 280° West 427 491 37,000  Level FlightAware Transoceanic
09:28AM 57.6831 -25.8043 280° West 427 491 37,000  Level FlightAware Transoceanic
09:29AM 57.7032 -26.0232 280° West 427 491 37,000  Level FlightAware Transoceanic
09:30AM 57.7230 -26.2423 279° West 427 491 37,000  Level FlightAware Transoceanic
09:31AM 57.7423 -26.4617 279° West 427 491 37,000  Level FlightAware Transoceanic
09:32AM 57.7613 -26.6813 279° West 427 491 37,000  Level FlightAware Transoceanic
09:33AM 57.7799 -26.9011 279° West 427 491 37,000  Level FlightAware Transoceanic
09:34AM 57.7981 -27.1211 279° West 427 491 37,000  Level FlightAware Transoceanic
09:35AM 57.8159 -27.3414 279° West 427 491 37,000  Level FlightAware Transoceanic
09:36AM 57.8334 -27.5618 278° West 427 491 37,000  Level FlightAware Transoceanic
09:37AM 57.8505 -27.7825 278° West 427 491 37,000  Level FlightAware Transoceanic
09:38AM 57.8672 -28.0034 278° West 427 491 37,000  Level FlightAware Transoceanic
09:39AM 57.8835 -28.2245 278° West 427 491 37,000  Level FlightAware Transoceanic
09:40AM 57.8994 -28.4458 278° West 427 491 37,000  Level FlightAware Transoceanic
09:41AM 57.9149 -28.6673 277° West 427 491 37,000  Level FlightAware Transoceanic
09:42AM 57.9301 -28.8890 277° West 427 491 37,000  Level FlightAware Transoceanic
09:43AM 57.9448 -29.1108 277° West 427 491 37,000  Level FlightAware Transoceanic
09:44AM 57.9592 -29.3328 277° West 427 491 37,000  Level FlightAware Transoceanic
09:45AM 57.9732 -29.5551 277° West 427 491 37,000  Level FlightAware Transoceanic
09:46AM 57.9868 -29.7775 276° West 427 491 37,000  Level FlightAware Transoceanic
09:47AM 58.0001 -30.0026 276° West  Level FlightAware Approximate
09:48AM 57.9997 -30.0052 264° West  Level FlightAware Approximate
09:49AM 57.9863 -30.2304 264° West  Level FlightAware Approximate
09:50AM 57.9725 -30.4554 264° West  Level FlightAware Approximate
09:51AM 57.9584 -30.6802 263° West  Level FlightAware Approximate
09:52AM 57.9438 -30.9053 263° West  Level FlightAware Approximate
09:53AM 57.9288 -31.1303 263° West  Level FlightAware Approximate
09:54AM 57.9134 -31.3550 263° West  Level FlightAware Approximate
09:55AM 57.8976 -31.5796 263° West  Level FlightAware Approximate
09:56AM 57.8814 -31.8039 262° West  Level FlightAware Approximate
09:57AM 57.8648 -32.0281 262° West  Level FlightAware Approximate
09:58AM 57.8478 -32.2520 262° West  Level FlightAware Approximate
09:59AM 57.8304 -32.4758 262° West  Level FlightAware Approximate
10:00AM 57.8127 -32.6993 262° West  Level FlightAware Approximate
10:01AM 57.7945 -32.9226 261° West  Level FlightAware Approximate
10:02AM 57.7760 -33.1456 261° West  Level FlightAware Approximate
10:03AM 57.7570 -33.3685 261° West  Level FlightAware Approximate
10:04AM 57.7377 -33.5911 261° West  Level FlightAware Approximate
10:05AM 57.7180 -33.8134 261° West  Level FlightAware Approximate
10:06AM 57.6979 -34.0355 260° West  Level FlightAware Approximate
10:07AM 57.6774 -34.2574 260° West  Level FlightAware Approximate
10:08AM 57.6565 -34.4790 260° West  Level FlightAware Approximate
10:09AM 57.6352 -34.7004 260° West  Level FlightAware Approximate
10:10AM 57.6135 -34.9215 260° West  Level FlightAware Approximate
10:11AM 57.5915 -35.1423 260° West  Level FlightAware Approximate
10:12AM 57.5691 -35.3628 259° West  Level FlightAware Approximate
10:13AM 57.5462 -35.5831 259° West  Level FlightAware Approximate
10:14AM 57.5230 -35.8031 259° West  Level FlightAware Approximate
10:15AM 57.4995 -36.0228 259° West  Level FlightAware Approximate
10:16AM 57.4755 -36.2423 259° West  Level FlightAware Approximate
10:17AM 57.4512 -36.4614 258° West  Level FlightAware Approximate
10:18AM 57.4264 -36.6803 258° West  Level FlightAware Approximate
10:19AM 57.4013 -36.8988 258° West  Level FlightAware Approximate
10:20AM 57.3759 -37.1171 258° West  Level FlightAware Approximate
10:21AM 57.3500 -37.3350 258° West  Level FlightAware Approximate
10:22AM 57.3238 -37.5527 258° West  Level FlightAware Approximate
10:23AM 57.2972 -37.7700 257° West  Level FlightAware Approximate
10:24AM 57.2702 -37.9870 257° West  Level FlightAware Approximate
10:25AM 57.2428 -38.2037 257° West  Level FlightAware Approximate
10:26AM 57.2151 -38.4201 257° West  Level FlightAware Approximate
10:27AM 57.1870 -38.6361 257° West  Level FlightAware Approximate
10:28AM 57.1585 -38.8518 256° West  Level FlightAware Approximate
10:29AM 57.1297 -39.0672 256° West  Level FlightAware Approximate
10:30AM 57.1005 -39.2822 256° West  Level FlightAware Approximate
10:31AM 57.0709 -39.4969 256° West  Level FlightAware Approximate
10:32AM 57.0410 -39.7113 256° West  Level FlightAware Approximate
10:33AM 57.0107 -39.9253 256° West  Level FlightAware Approximate
10:34AM 56.9916 -40.1429 264° West  Level FlightAware Approximate
10:35AM 56.9785 -40.3625 264° West  Level FlightAware Approximate
10:36AM 56.9649 -40.5819 264° West  Level FlightAware Approximate
10:37AM 56.9510 -40.8011 263° West  Level FlightAware Approximate
10:38AM 56.9366 -41.0202 263° West  Level FlightAware Approximate
10:38AM 57.0000 -40.0000 264° West 411 473 37,000  Level ETMS Enhanced Traffic Management System
10:39AM 56.9220 -41.2391 263° West  Level FlightAware Approximate
10:40AM 56.9068 -41.4583 263° West  Level FlightAware Approximate
10:41AM 56.8913 -41.6774 263° West  Level FlightAware Approximate
10:42AM 56.8754 -41.8962 263° West  Level FlightAware Approximate
10:43AM 56.8592 -42.1149 262° West  Level FlightAware Approximate
10:44AM 56.8922 -41.6658 263° West 411 473 37,000  Level FlightAware Transoceanic
10:45AM 56.8771 -41.8733 262° West 411 473 37,000  Level FlightAware Transoceanic
10:46AM 56.8617 -42.0807 262° West 411 473 37,000  Level FlightAware Transoceanic
10:47AM 56.8460 -42.2878 262° West 411 473 37,000  Level FlightAware Transoceanic
10:48AM 56.8299 -42.4948 262° West 411 473 37,000  Level FlightAware Transoceanic
10:49AM 56.8135 -42.7016 262° West 411 473 37,000  Level FlightAware Transoceanic
10:50AM 56.7968 -42.9083 261° West 411 473 37,000  Level FlightAware Transoceanic
10:51AM 56.7797 -43.1147 261° West 411 473 37,000  Level FlightAware Transoceanic
10:52AM 56.7623 -43.3210 261° West 411 473 37,000  Level FlightAware Transoceanic
10:53AM 56.7445 -43.5271 261° West 411 473 37,000  Level FlightAware Transoceanic
10:54AM 56.7264 -43.7329 261° West 411 473 37,000  Level FlightAware Transoceanic
10:55AM 56.7080 -43.9386 261° West 411 473 37,000  Level FlightAware Transoceanic
10:56AM 56.6892 -44.1441 260° West 411 473 37,000  Level FlightAware Transoceanic
10:57AM 56.6700 -44.3493 260° West 411 473 37,000  Level FlightAware Transoceanic
10:58AM 56.6506 -44.5544 260° West 411 473 37,000  Level FlightAware Transoceanic
10:59AM 56.6308 -44.7592 260° West 411 473 37,000  Level FlightAware Transoceanic
11:00AM 56.6106 -44.9639 260° West 411 473 37,000  Level FlightAware Transoceanic
11:01AM 56.5902 -45.1683 260° West 411 473 37,000  Level FlightAware Transoceanic
11:02AM 56.5694 -45.3724 259° West 411 473 37,000  Level FlightAware Transoceanic
11:03AM 56.5482 -45.5764 259° West 411 473 37,000  Level FlightAware Transoceanic
11:04AM 56.5267 -45.7801 259° West 411 473 37,000  Level FlightAware Transoceanic
11:05AM 56.5050 -45.9836 259° West 411 473 37,000  Level FlightAware Transoceanic
11:06AM 56.4828 -46.1869 259° West 411 473 37,000  Level FlightAware Transoceanic
11:07AM 56.4603 -46.3899 259° West 411 473 37,000  Level FlightAware Transoceanic
11:08AM 56.4375 -46.5927 258° West 411 473 37,000  Level FlightAware Transoceanic
11:09AM 56.4144 -46.7952 258° West 411 473 37,000  Level FlightAware Transoceanic
11:10AM 56.3909 -46.9975 258° West 411 473 37,000  Level FlightAware Transoceanic
11:11AM 56.3672 -47.1995 258° West 411 473 37,000  Level FlightAware Transoceanic
11:12AM 56.3430 -47.4013 258° West 411 473 37,000  Level FlightAware Transoceanic
11:13AM 56.3186 -47.6028 258° West 411 473 37,000  Level FlightAware Transoceanic
11:14AM 56.2938 -47.8041 257° West 411 473 37,000  Level FlightAware Transoceanic
11:15AM 56.2687 -48.0051 257° West 411 473 37,000  Level FlightAware Transoceanic
11:16AM 56.2433 -48.2058 257° West 411 473 37,000  Level FlightAware Transoceanic
11:17AM 56.2176 -48.4062 257° West 411 473 37,000  Level FlightAware Transoceanic
11:18AM 56.1915 -48.6064 257° West 411 473 37,000  Level FlightAware Transoceanic
11:19AM 56.1651 -48.8064 257° West 411 473 37,000  Level FlightAware Transoceanic
11:20AM 56.1384 -49.0060 256° West 411 473 37,000  Level FlightAware Transoceanic
11:21AM 56.1114 -49.2054 256° West 411 473 37,000  Level FlightAware Transoceanic
11:22AM 56.0840 -49.4045 256° West 411 473 37,000  Level FlightAware Transoceanic
11:23AM 56.0563 -49.6033 256° West 411 473 37,000  Level FlightAware Transoceanic
11:24AM 56.0283 -49.8018 256° West 411 473 37,000  Level FlightAware Transoceanic
11:25AM 55.9984 -50.0108 256° West  Level FlightAware Approximate
11:25AM 56.0000 -50.0000 250° West 433 498 37,000  Level ETMS Enhanced Traffic Management System
11:26AM 55.9950 -50.0205 246° West  Level FlightAware Approximate
11:27AM 55.9465 -50.2179 246° West  Level FlightAware Approximate
11:28AM 55.8978 -50.4148 246° West  Level FlightAware Approximate
11:29AM 55.8487 -50.6112 246° West  Level FlightAware Approximate
11:30AM 55.7993 -50.8071 246° West  Level FlightAware Approximate
11:31AM 55.7496 -51.0025 246° West  Level FlightAware Approximate
11:32AM 55.6589 -51.6042 249° West 433 498 37,000  Level FlightAware Transoceanic
11:33AM 55.6147 -51.8028 248° West 433 498 37,000  Level FlightAware Transoceanic
11:34AM 55.5703 -52.0009 248° West 433 498 37,000  Level FlightAware Transoceanic
11:35AM 55.5256 -52.1985 248° West 433 498 37,000  Level FlightAware Transoceanic
11:36AM 55.4805 -52.3957 248° West 433 498 37,000  Level FlightAware Transoceanic
11:37AM 55.4352 -52.5924 248° West 433 498 37,000  Level FlightAware Transoceanic
11:38AM 55.3895 -52.7887 248° West 433 498 37,000  Level FlightAware Transoceanic
11:39AM 55.3435 -52.9845 247° West 433 498 37,000  Level FlightAware Transoceanic
11:40AM 55.2971 -53.1799 247° West 433 498 37,000  Level FlightAware Transoceanic
11:41AM 55.2505 -53.3748 247° West 433 498 37,000  Level FlightAware Transoceanic
11:42AM 55.2036 -53.5693 247° West 433 498 37,000  Level FlightAware Transoceanic
11:43AM 55.1563 -53.7633 247° West 433 498 37,000  Level FlightAware Transoceanic
11:44AM 55.1088 -53.9568 247° West 433 498 37,000  Level FlightAware Transoceanic
11:45AM 55.0609 -54.1499 247° West 433 498 37,000  Level FlightAware Transoceanic
11:46AM 55.0128 -54.3425 246° West 433 498 37,000  Level FlightAware Transoceanic
11:47AM 54.9643 -54.5347 246° West 433 498 37,000  Level FlightAware Transoceanic
11:48AM 54.9156 -54.7263 246° West 433 498 37,000  Level FlightAware Transoceanic
11:49AM 54.8665 -54.9176 246° West 433 498 37,000  Level FlightAware Transoceanic
11:50AM 54.8171 -55.1083 246° West 433 498 37,000  Level FlightAware Transoceanic
11:51AM 54.7674 -55.2986 246° West 433 498 37,000  Level FlightAware Transoceanic
11:51AM 54.7833 -55.2167 239° Southwest 440 506 37,000  Level Gander Center
11:52AM 54.7175 -55.4884 245° Southwest 433 498 37,000  Level FlightAware Transoceanic
11:52AM 54.7500 -55.4000 253° West 440 506 37,000  Level Gander Center
11:53AM 54.6672 -55.6778 245° Southwest 433 498 37,000  Level FlightAware Transoceanic
11:53AM 54.6833 -55.5833 238° Southwest 440 506 37,000  Level Gander Center
11:54AM 54.6063 -55.8511 239° Southwest  Level Estimated
11:54AM 54.6333 -55.8000 248° West 440 506 37,000  Level Gander Center
11:55AM 54.5452 -56.0239 239° Southwest  Level Estimated
11:55AM 54.5500 -55.9500 226° Southwest 440 506 37,000  Level Gander Center
11:56AM 54.4837 -56.1963 239° Southwest  Level Estimated
11:56AM 54.4833 -56.1333 238° Southwest 440 506 37,000  Level Gander Center
11:57AM 54.4167 -56.3167 238° Southwest 440 506 37,400 540 Climbing Gander Center
11:58AM 54.3500 -56.4333 226° Southwest 440 506 38,000 300 Climbing Gander Center
11:59AM 54.3167 -56.6167 253° West 430 495 38,000  Level Gander Center
12:00PM 54.2500 -56.7833 236° Southwest 430 495 38,000  Level Gander Center
12:01PM 54.1667 -56.9667 232° Southwest 430 495 38,000  Level Gander Center
12:02PM 54.1167 -57.1500 245° Southwest 440 506 38,000  Level Gander Center
12:03PM 54.0500 -57.3167 236° Southwest 440 506 38,000  Level Gander Center
12:04PM 53.9833 -57.5000 238° Southwest 440 506 38,000  Level Gander Center
12:05PM 53.9333 -57.6833 245° Southwest 440 506 38,000  Level Gander Center
12:06PM 53.8667 -57.8500 236° Southwest 440 506 38,000  Level Gander Center
12:07PM 53.7833 -58.0333 232° Southwest 440 506 38,000  Level Gander Center
12:08PM 53.7167 -58.2000 236° Southwest 440 506 38,000  Level Gander Center
12:09PM 53.6667 -58.3833 245° Southwest 440 506 38,000  Level Gander Center
12:10PM 53.6000 -58.5500 236° Southwest 440 506 38,000  Level Gander Center
12:11PM 53.5333 -58.7167 236° Southwest 440 506 38,000  Level Gander Center
12:12PM 53.4500 -58.9000 233° Southwest 440 506 38,000  Level Gander Center
12:13PM 53.4000 -59.0667 243° Southwest 440 506 38,000  Level Gander Center
12:14PM 53.3333 -59.2333 236° Southwest 440 506 38,000  Level Gander Center
12:15PM 53.2667 -59.4167 239° Southwest 440 506 38,000  Level Gander Center
12:16PM 53.2000 -59.5833 236° Southwest 440 506 38,000  Level Gander Center
12:17PM 53.1167 -59.7500 230° Southwest 440 506 38,000  Level Gander Center
12:18PM 53.0500 -59.9167 236° Southwest 430 495 38,000  Level Gander Center
12:19PM 52.9833 -60.0833 236° Southwest 430 495 38,000  Level Gander Center
12:20PM 52.9167 -60.2500 236° Southwest 430 495 38,000  Level Gander Center
12:20PM 52.8667 -60.3833 238° Southwest 430 495 38,000  Level Moncton Center
12:21PM 52.8000 -60.5500 237° Southwest 430 495 38,000  Level Moncton Center
12:22PM 52.7333 -60.7167 237° Southwest 430 495 38,000  Level Moncton Center
12:23PM 52.6667 -60.8667 234° Southwest 430 495 38,000  Level Moncton Center
12:24PM 52.5833 -61.0333 231° Southwest 430 495 38,000  Level Moncton Center
12:25PM 52.5333 -61.2000 244° Southwest 430 495 38,000  Level Moncton Center
12:26PM 52.4667 -61.3833 239° Southwest 430 495 38,000  Level Moncton Center
12:27PM 52.3833 -61.5167 224° Southwest 430 495 38,000  Level Moncton Center
12:28PM 52.3167 -61.6833 237° Southwest 430 495 38,000  Level Moncton Center
12:29PM 52.2667 -61.8500 244° Southwest 430 495 38,000  Level Moncton Center
12:30PM 52.1833 -62.0167 231° Southwest 430 495 38,000  Level Moncton Center
12:31PM 52.1167 -62.1667 234° Southwest 430 495 38,000  Level Moncton Center
12:32PM 52.0500 -62.3333 237° Southwest 430 495 38,000  Level Moncton Center
12:33PM 51.9667 -62.5000 231° Southwest 430 495 38,000  Level Moncton Center
12:34PM 51.9000 -62.6333 231° Southwest 430 495 38,000  Level Moncton Center
12:35PM 51.8333 -62.8000 237° Southwest 430 495 38,000  Level Moncton Center
12:36PM 51.7667 -62.9333 231° Southwest 430 495 38,000  Level Moncton Center
12:37PM 51.7000 -63.1000 237° Southwest 420 483 38,000  Level Moncton Center
12:38PM 51.6333 -63.2667 237° Southwest 420 483 38,000  Level Moncton Center
12:39PM 51.5667 -63.4000 231° Southwest 430 495 38,000  Level Moncton Center
12:40PM 51.5000 -63.5667 237° Southwest 430 495 38,000  Level Moncton Center
12:41PM 51.4167 -63.7333 231° Southwest 430 495 38,000  Level Moncton Center
12:42PM 51.3500 -63.8667 231° Southwest 430 495 38,000  Level Moncton Center
12:43PM 51.2667 -64.0167 228° Southwest 430 495 38,000  Level Moncton Center
12:44PM 51.2000 -64.1833 237° Southwest 430 495 38,000  Level Moncton Center
12:45PM 51.1333 -64.3500 238° Southwest 430 495 38,000  Level Moncton Center
12:46PM 51.0500 -64.4833 225° Southwest 430 495 38,000  Level Moncton Center
12:47PM 50.9833 -64.6333 235° Southwest 430 495 38,000  Level Moncton Center
12:48PM 50.9167 -64.8000 238° Southwest 430 495 38,000  Level Moncton Center
12:49PM 50.8333 -64.9333 225° Southwest 430 495 38,000  Level Moncton Center
12:50PM 50.7667 -65.0833 235° Southwest 430 495 38,000  Level Moncton Center
12:51PM 50.7000 -65.2500 238° Southwest 430 495 38,000  Level Moncton Center
12:52PM 50.6000 -65.4000 224° Southwest 430 495 38,000  Level Moncton Center
12:53PM 50.5333 -65.5333 232° Southwest 430 495 38,000  Level Moncton Center
12:54PM 50.4500 -65.6833 229° Southwest 430 495 38,000  Level Moncton Center
12:55PM 50.3833 -65.8333 235° Southwest 430 495 38,000  Level Moncton Center
12:56PM 50.3167 -66.0000 238° Southwest 430 495 38,000  Level Moncton Center
12:57PM 50.2333 -66.1167 222° Southwest 430 495 38,000  Level Moncton Center
12:58PM 50.1667 -66.2833 238° Southwest 430 495 38,000  Level Moncton Center
12:59PM 50.1000 -66.4333 235° Southwest 430 495 38,000  Level Moncton Center
01:00PM 50.0167 -66.5667 226° Southwest 430 495 38,000  Level Moncton Center
01:01PM 49.9333 -66.7167 229° Southwest 430 495 38,000  Level Moncton Center
01:02PM 49.8667 -66.8667 235° Southwest 430 495 38,000  Level Moncton Center
01:03PM 49.7833 -66.9833 222° Southwest 430 495 38,000  Level Moncton Center
01:04PM 49.7167 -67.1500 238° Southwest 430 495 38,000  Level Moncton Center
01:05PM 49.6333 -67.3000 229° Southwest 430 495 38,000  Level Moncton Center
01:06PM 49.5500 -67.4500 229° Southwest 430 495 38,000  Level Moncton Center
01:07PM 49.4833 -67.5667 229° Southwest 430 495 38,000  Level Moncton Center
01:08PM 49.4167 -67.7167 236° Southwest 430 495 38,000  Level Moncton Center
01:09PM 49.3167 -67.8333 217° Southwest 430 495 38,000  Level Moncton Center
01:10PM 49.2500 -67.9833 236° Southwest 430 495 38,000  Level Moncton Center
01:11PM 49.1667 -68.1333 230° Southwest 430 495 38,000  Level Moncton Center
01:12PM 49.1000 -68.2667 233° Southwest 430 495 38,000  Level Moncton Center
01:13PM 49.0000 -68.4000 221° Southwest 430 495 38,000  Level Moncton Center
01:14PM 48.9167 -68.5333 226° Southwest 430 495 38,000  Level Moncton Center
01:15PM 48.8333 -68.6500 223° Southwest 430 495 38,000  Level Moncton Center
01:21PM 48.3270 -69.3160 223° Southwest 432 497 38,000  Level FlightAware
01:21PM 48.2770 -69.3860 223° Southwest 431 496 38,000  Level FlightAware
01:22PM 48.2060 -69.4850 223° Southwest 433 498 38,000  Level FlightAware
01:23PM 48.1210 -69.6030 223° Southwest 434 499 38,000  Level FlightAware
01:24PM 48.0390 -69.7160 223° Southwest 437 503 38,000  Level FlightAware
01:25PM 47.9500 -69.8380 223° Southwest 436 502 38,000  Level FlightAware
01:26PM 47.8700 -69.9470 222° Southwest 436 502 38,000  Level FlightAware
01:27PM 47.8160 -70.0210 223° Southwest 436 502 38,000  Level FlightAware
01:27PM 47.7580 -70.1000 222° Southwest 435 501 38,000  Level FlightAware
01:28PM 47.6900 -70.1930 223° Southwest 435 501 38,000  Level FlightAware
01:29PM 47.6030 -70.3110 222° Southwest 435 501 38,000  Level FlightAware
01:30PM 47.5440 -70.3910 222° Southwest 434 499 38,000  Level FlightAware
01:30PM 47.4760 -70.4820 222° Southwest 433 498 38,000  Level FlightAware
01:31PM 47.4170 -70.5610 222° Southwest 432 497 38,000  Level FlightAware
01:32PM 47.3590 -70.6390 222° Southwest 433 498 38,000  Level FlightAware
01:32PM 47.2920 -70.7270 222° Southwest 434 499 38,000  Level FlightAware
01:33PM 47.2320 -70.8070 222° Southwest 436 502 38,000  Level FlightAware
01:34PM 47.1670 -70.8940 222° Southwest 437 503 38,000  Level FlightAware
01:35PM 47.1060 -70.9730 221° Southwest 439 505 38,000  Level FlightAware
01:35PM 47.0730 -71.0160 222° Southwest 439 505 38,000  Level FlightAware
01:36PM 46.9810 -71.1380 222° Southwest 441 507 38,000  Level FlightAware
01:37PM 46.9150 -71.2250 222° Southwest 441 507 38,000  Level FlightAware
01:37PM 46.8550 -71.3030 222° Southwest 440 506 38,000  Level FlightAware
01:38PM 46.7850 -71.3930 221° Southwest 439 505 38,000 -480 Level FlightAware
01:39PM 46.7320 -71.4620 222° Southwest 439 505 37,400 -1,140 Descending FlightAware
01:39PM 46.6660 -71.5460 221° Southwest 440 506 36,500 -1,260 Descending FlightAware
01:40PM 46.6280 -71.5960 222° Southwest 442 509 36,000 -1,080 Descending FlightAware
01:41PM 46.5510 -71.6950 221° Southwest 437 503 35,200 -1,020 Descending FlightAware
01:41PM 46.4890 -71.7760 222° Southwest 436 502 34,500 -1,080 Descending FlightAware
01:42PM 46.4320 -71.8510 222° Southwest 437 503 33,800 -1,980 Descending FlightAware
01:43PM 46.3580 -71.9480 222° Southwest 436 502 31,600 -2,640 Descending FlightAware
01:43PM 46.3160 -72.0040 223° Southwest 438 504 30,100 -2,700 Descending FlightAware
01:44PM 46.2330 -72.1110 222° Southwest 420 483 27,900 -2,640 Descending FlightAware
01:45PM 46.1880 -72.1700 222° Southwest 414 476 26,700 -1,440 Descending FlightAware
01:46PM 46.1160 -72.2610 221° Southwest 383 441 25,900 -1,320 Descending FlightAware
01:46PM 46.0670 -72.3250 222° Southwest 376 433 24,800 -1,980 Descending FlightAware
01:47PM 46.0080 -72.3990 221° Southwest 370 426 23,200 -2,580 Descending FlightAware
01:48PM 45.9580 -72.4630 222° Southwest 359 413 21,200 -2,640 Descending FlightAware
01:48PM 45.9070 -72.5290 222° Southwest 325 374 19,600 -2,100 Descending FlightAware
01:49PM 45.8650 -72.5810 221° Southwest 298 343 18,400 -2,100 Descending FlightAware
01:50PM 45.8220 -72.6370 222° Southwest 295 339 16,800 -1,920 Descending FlightAware
01:51PM 45.7660 -72.7090 222° Southwest 296 341 15,100 -1,800 Descending FlightAware
01:51PM 45.7200 -72.7690 222° Southwest 287 330 13,800 -1,980 Descending FlightAware
01:52PM 45.7110 -72.7890 237° Southwest 281 323 13,400 -1,860 Descending FlightAware
01:52PM 45.7060 -72.8140 254° West 276 318 13,000 -1,860 Descending FlightAware
01:53PM 45.6980 -72.8870 261° West 267 307 11,700 -2,040 Descending FlightAware
01:53PM 45.6920 -72.9630 264° West 269 310 10,200 -1,920 Descending FlightAware
01:54PM 45.6880 -73.0100 263° West 270 311 9,500 -1,380 Descending FlightAware
01:54PM 45.6830 -73.0640 262° West 265 305 8,900 -1,380 Descending FlightAware
01:55PM 45.6780 -73.1130 262° West 264 304 8,200 -1,500 Descending FlightAware
01:55PM 45.6710 -73.1640 259° West 260 299 7,500 -1,320 Descending FlightAware
01:56PM 45.6630 -73.2060 255° West 261 300 7,000 -900 Descending FlightAware
01:56PM 45.6520 -73.2770 258° West 263 303 6,500 -780 Descending FlightAware
01:57PM 45.6440 -73.3250 257° West 262 302 6,100 -1,020 Descending FlightAware
01:57PM 45.6370 -73.3690 257° West 257 296 5,600 -1,020 Descending FlightAware
01:57PM 45.6330 -73.3950 258° West 255 293 5,400 -960 Descending FlightAware
01:58PM 45.6260 -73.4410 258° West 253 291 4,900 -1,200 Descending FlightAware
01:58PM 45.6170 -73.4910 256° West 253 291 4,300 -1,320 Descending FlightAware
01:59PM 45.6110 -73.5280 257° West 247 284 3,800 -1,200 Descending FlightAware
01:59PM 45.6050 -73.5520 250° West 234 269 3,500 -960 Descending FlightAware
02:00PM 45.5860 -73.5840 230° Southwest 217 250 3,100 -780 Descending FlightAware
02:00PM 45.5780 -73.5950 224° Southwest 207 238 3,000 -660 Descending FlightAware
02:00PM 45.5500 -73.6320 223° Southwest 177 204 2,500 -840 Descending FlightAware
02:01PM 45.5360 -73.6520 225° Southwest 159 183 2,100 -840 Descending FlightAware
02:01PM 45.5220 -73.6700 222° Southwest 155 178 1,800 -900 Descending FlightAware
02:02PM 45.5060 -73.6920 224° Southwest 157 181 1,300 -840 Descending FlightAware
02:02PM 45.4960 -73.7060 224° Southwest 145 167 1,100 -780 Descending FlightAware
02:02PM 45.4870 -73.7180 223° Southwest 140 161 800 -720 Descending FlightAware
02:03PM 45.4730 -73.7360 222° Southwest 138 159 500 -720 Descending FlightAware
02:03PM 45.4580 -73.7570 224° Southwest 138 159 100 -780 Descending FlightAware
02:04PM 45.4470 -73.7710 222° Southwest 132 152 -300 Descending FlightAware
02:04PM 45.4390 -73.7830 226° Southwest 40 46  Level FlightAware
02:05PM 45.4370 -73.7850 215° Southwest 27 31  Level FlightAware
02:05PM 45.4350 -73.7860 199° South 28 32  Level FlightAware
02:05PM 45.4320 -73.7870 193° South 21 24  Level FlightAware
02:06PM 45.4300 -73.7850 145° Southeast 13 15  Level FlightAware
02:07PM 45.4300 -73.7820 90° East 2 2  Level FlightAware